sensor_id;sensor_type;location;lat;lon;timestamp;P1;durP1;ratioP1;P2;durP2;ratioP2
17763;SDS011;22245;52.832;13.816;2022-08-19T00:00:11;16.17;;;13.85;;
17763;SDS011;22245;52.832;13.816;2022-08-19T00:03:35;15.68;;;13.52;;
17763;SDS011;22245;52.832;13.816;2022-08-19T00:06:58;18.45;;;13.82;;
17763;SDS011;22245;52.832;13.816;2022-08-19T00:10:20;15.82;;;13.20;;
17763;SDS011;22245;52.832;13.816;2022-08-19T00:13:43;15.73;;;13.35;;
17763;SDS011;22245;52.832;13.816;2022-08-19T00:17:06;17.40;;;13.52;;
17763;SDS011;22245;52.832;13.816;2022-08-19T00:20:30;15.45;;;13.75;;
17763;SDS011;22245;52.832;13.816;2022-08-19T00:23:52;19.63;;;13.80;;
17763;SDS011;22245;52.832;13.816;2022-08-19T00:27:13;17.13;;;13.50;;
17763;SDS011;22245;52.832;13.816;2022-08-19T00:30:45;15.15;;;13.65;;
17763;SDS011;22245;52.832;13.816;2022-08-19T00:34:07;15.82;;;14.00;;
17763;SDS011;22245;52.832;13.816;2022-08-19T00:37:31;19.83;;;14.32;;
17763;SDS011;22245;52.832;13.816;2022-08-19T00:40:54;16.45;;;14.07;;
17763;SDS011;22245;52.832;13.816;2022-08-19T00:44:17;16.98;;;14.63;;
17763;SDS011;22245;52.832;13.816;2022-08-19T00:47:46;19.38;;;14.35;;
17763;SDS011;22245;52.832;13.816;2022-08-19T00:51:08;15.75;;;13.55;;
17763;SDS011;22245;52.832;13.816;2022-08-19T00:54:31;17.05;;;13.45;;
17763;SDS011;22245;52.832;13.816;2022-08-19T00:57:54;18.48;;;13.75;;
17763;SDS011;22245;52.832;13.816;2022-08-19T01:01:19;15.70;;;13.95;;
17763;SDS011;22245;52.832;13.816;2022-08-19T01:04:40;16.73;;;14.93;;
17763;SDS011;22245;52.832;13.816;2022-08-19T01:08:03;18.15;;;15.30;;
17763;SDS011;22245;52.832;13.816;2022-08-19T01:11:28;17.08;;;14.88;;
17763;SDS011;22245;52.832;13.816;2022-08-19T01:14:53;20.00;;;14.85;;
17763;SDS011;22245;52.832;13.816;2022-08-19T01:18:18;16.90;;;14.85;;
17763;SDS011;22245;52.832;13.816;2022-08-19T01:21:42;18.92;;;15.63;;
17763;SDS011;22245;52.832;13.816;2022-08-19T01:25:09;18.35;;;14.52;;
17763;SDS011;22245;52.832;13.816;2022-08-19T01:28:35;16.45;;;14.75;;
17763;SDS011;22245;52.832;13.816;2022-08-19T01:32:01;16.20;;;14.50;;
17763;SDS011;22245;52.832;13.816;2022-08-19T01:35:24;14.93;;;13.43;;
17763;SDS011;22245;52.832;13.816;2022-08-19T01:38:48;16.20;;;14.50;;
17763;SDS011;22245;52.832;13.816;2022-08-19T01:42:12;16.48;;;14.63;;
17763;SDS011;22245;52.832;13.816;2022-08-19T01:45:34;16.20;;;14.50;;
17763;SDS011;22245;52.832;13.816;2022-08-19T01:48:56;16.08;;;14.38;;
17763;SDS011;22245;52.832;13.816;2022-08-19T01:52:18;18.05;;;14.40;;
17763;SDS011;22245;52.832;13.816;2022-08-19T01:55:41;17.08;;;14.93;;
17763;SDS011;22245;52.832;13.816;2022-08-19T01:59:06;16.40;;;14.35;;
17763;SDS011;22245;52.832;13.816;2022-08-19T02:02:33;16.45;;;14.30;;
17763;SDS011;22245;52.832;13.816;2022-08-19T02:05:56;16.65;;;14.00;;
17763;SDS011;22245;52.832;13.816;2022-08-19T02:09:19;17.90;;;13.63;;
17763;SDS011;22245;52.832;13.816;2022-08-19T02:12:41;15.10;;;13.57;;
17763;SDS011;22245;52.832;13.816;2022-08-19T02:16:05;17.48;;;13.88;;
17763;SDS011;22245;52.832;13.816;2022-08-19T02:19:26;17.63;;;15.10;;
17763;SDS011;22245;52.832;13.816;2022-08-19T02:22:48;16.63;;;13.93;;
17763;SDS011;22245;52.832;13.816;2022-08-19T02:26:10;16.58;;;14.57;;
17763;SDS011;22245;52.832;13.816;2022-08-19T02:29:33;15.70;;;13.80;;
17763;SDS011;22245;52.832;13.816;2022-08-19T02:32:57;16.52;;;14.73;;
17763;SDS011;22245;52.832;13.816;2022-08-19T02:36:19;18.00;;;14.73;;
17763;SDS011;22245;52.832;13.816;2022-08-19T02:39:41;16.70;;;14.90;;
17763;SDS011;22245;52.832;13.816;2022-08-19T02:43:03;16.58;;;14.88;;
17763;SDS011;22245;52.832;13.816;2022-08-19T02:46:28;17.80;;;14.95;;
17763;SDS011;22245;52.832;13.816;2022-08-19T02:49:53;17.27;;;14.65;;
17763;SDS011;22245;52.832;13.816;2022-08-19T02:53:15;16.95;;;15.15;;
17763;SDS011;22245;52.832;13.816;2022-08-19T02:56:38;18.10;;;15.18;;
17763;SDS011;22245;52.832;13.816;2022-08-19T03:00:04;18.00;;;14.30;;
17763;SDS011;22245;52.832;13.816;2022-08-19T03:03:28;19.35;;;15.30;;
17763;SDS011;22245;52.832;13.816;2022-08-19T03:06:51;17.65;;;15.13;;
17763;SDS011;22245;52.832;13.816;2022-08-19T03:10:18;15.63;;;13.57;;
17763;SDS011;22245;52.832;13.816;2022-08-19T03:13:40;14.50;;;12.70;;
17763;SDS011;22245;52.832;13.816;2022-08-19T03:17:03;14.52;;;13.02;;
17763;SDS011;22245;52.832;13.816;2022-08-19T03:20:26;13.90;;;12.00;;
17763;SDS011;22245;52.832;13.816;2022-08-19T03:23:49;12.52;;;11.23;;
17763;SDS011;22245;52.832;13.816;2022-08-19T03:27:11;14.60;;;12.48;;
17763;SDS011;22245;52.832;13.816;2022-08-19T03:30:34;15.82;;;13.32;;
17763;SDS011;22245;52.832;13.816;2022-08-19T03:33:56;17.83;;;14.02;;
17763;SDS011;22245;52.832;13.816;2022-08-19T03:37:18;19.10;;;15.02;;
17763;SDS011;22245;52.832;13.816;2022-08-19T03:40:42;16.90;;;14.50;;
17763;SDS011;22245;52.832;13.816;2022-08-19T03:44:04;15.32;;;13.73;;
17763;SDS011;22245;52.832;13.816;2022-08-19T03:47:35;16.67;;;13.43;;
17763;SDS011;22245;52.832;13.816;2022-08-19T03:50:57;14.45;;;11.55;;
17763;SDS011;22245;52.832;13.816;2022-08-19T03:54:20;14.00;;;12.50;;
17763;SDS011;22245;52.832;13.816;2022-08-19T03:57:45;12.75;;;11.32;;
17763;SDS011;22245;52.832;13.816;2022-08-19T04:01:08;13.05;;;11.05;;
17763;SDS011;22245;52.832;13.816;2022-08-19T04:04:31;12.65;;;11.35;;
17763;SDS011;22245;52.832;13.816;2022-08-19T04:07:53;14.43;;;12.15;;
17763;SDS011;22245;52.832;13.816;2022-08-19T04:11:18;13.25;;;11.80;;
17763;SDS011;22245;52.832;13.816;2022-08-19T04:15:03;12.63;;;10.98;;
17763;SDS011;22245;52.832;13.816;2022-08-19T04:18:26;12.68;;;11.25;;
17763;SDS011;22245;52.832;13.816;2022-08-19T04:21:55;12.65;;;11.40;;
17763;SDS011;22245;52.832;13.816;2022-08-19T04:25:17;12.98;;;11.65;;
17763;SDS011;22245;52.832;13.816;2022-08-19T04:28:38;14.27;;;11.30;;
17763;SDS011;22245;52.832;13.816;2022-08-19T04:32:02;14.68;;;12.00;;
17763;SDS011;22245;52.832;13.816;2022-08-19T04:35:28;12.50;;;11.20;;
17763;SDS011;22245;52.832;13.816;2022-08-19T04:38:57;14.90;;;11.80;;
17763;SDS011;22245;52.832;13.816;2022-08-19T04:42:21;15.93;;;12.65;;
17763;SDS011;22245;52.832;13.816;2022-08-19T04:46:03;14.55;;;12.13;;
17763;SDS011;22245;52.832;13.816;2022-08-19T04:49:27;13.93;;;12.13;;
17763;SDS011;22245;52.832;13.816;2022-08-19T04:52:50;15.10;;;13.00;;
17763;SDS011;22245;52.832;13.816;2022-08-19T04:56:14;14.65;;;13.00;;
17763;SDS011;22245;52.832;13.816;2022-08-19T04:59:39;15.02;;;13.32;;
17763;SDS011;22245;52.832;13.816;2022-08-19T05:03:01;15.82;;;13.25;;
17763;SDS011;22245;52.832;13.816;2022-08-19T05:06:28;17.20;;;13.90;;
17763;SDS011;22245;52.832;13.816;2022-08-19T05:09:53;17.75;;;14.05;;
17763;SDS011;22245;52.832;13.816;2022-08-19T05:13:18;17.80;;;14.57;;
17763;SDS011;22245;52.832;13.816;2022-08-19T05:16:41;18.95;;;16.05;;
17763;SDS011;22245;52.832;13.816;2022-08-19T05:20:03;19.08;;;15.88;;
17763;SDS011;22245;52.832;13.816;2022-08-19T05:23:44;21.08;;;16.85;;
17763;SDS011;22245;52.832;13.816;2022-08-19T05:27:06;18.42;;;16.52;;
17763;SDS011;22245;52.832;13.816;2022-08-19T05:30:28;19.30;;;17.23;;
17763;SDS011;22245;52.832;13.816;2022-08-19T05:34:06;23.95;;;18.10;;
17763;SDS011;22245;52.832;13.816;2022-08-19T05:37:39;24.13;;;18.17;;
17763;SDS011;22245;52.832;13.816;2022-08-19T05:41:05;23.48;;;18.88;;
17763;SDS011;22245;52.832;13.816;2022-08-19T05:44:29;24.50;;;18.65;;
17763;SDS011;22245;52.832;13.816;2022-08-19T05:47:52;23.75;;;18.77;;
17763;SDS011;22245;52.832;13.816;2022-08-19T05:51:14;21.63;;;18.98;;
17763;SDS011;22245;52.832;13.816;2022-08-19T05:54:36;23.17;;;18.40;;
17763;SDS011;22245;52.832;13.816;2022-08-19T05:58:01;20.73;;;18.50;;
17763;SDS011;22245;52.832;13.816;2022-08-19T06:01:24;21.83;;;18.98;;
17763;SDS011;22245;52.832;13.816;2022-08-19T06:04:47;24.25;;;19.20;;
17763;SDS011;22245;52.832;13.816;2022-08-19T06:08:09;22.73;;;18.48;;
17763;SDS011;22245;52.832;13.816;2022-08-19T06:11:32;19.85;;;17.73;;
17763;SDS011;22245;52.832;13.816;2022-08-19T06:14:57;21.65;;;17.17;;
17763;SDS011;22245;52.832;13.816;2022-08-19T06:18:20;21.45;;;18.80;;
17763;SDS011;22245;52.832;13.816;2022-08-19T06:21:44;22.20;;;19.20;;
17763;SDS011;22245;52.832;13.816;2022-08-19T06:25:08;21.50;;;18.45;;
17763;SDS011;22245;52.832;13.816;2022-08-19T06:28:30;23.90;;;18.27;;
17763;SDS011;22245;52.832;13.816;2022-08-19T06:31:54;20.42;;;18.27;;
17763;SDS011;22245;52.832;13.816;2022-08-19T06:35:18;22.98;;;18.42;;
17763;SDS011;22245;52.832;13.816;2022-08-19T06:38:40;21.63;;;18.05;;
17763;SDS011;22245;52.832;13.816;2022-08-19T06:42:05;19.83;;;17.33;;
17763;SDS011;22245;52.832;13.816;2022-08-19T06:45:30;20.35;;;17.52;;
17763;SDS011;22245;52.832;13.816;2022-08-19T06:48:59;25.25;;;18.75;;
17763;SDS011;22245;52.832;13.816;2022-08-19T06:52:23;24.88;;;18.20;;
17763;SDS011;22245;52.832;13.816;2022-08-19T06:55:45;21.23;;;17.70;;
17763;SDS011;22245;52.832;13.816;2022-08-19T06:59:07;19.25;;;17.25;;
17763;SDS011;22245;52.832;13.816;2022-08-19T07:02:30;22.35;;;17.50;;
17763;SDS011;22245;52.832;13.816;2022-08-19T07:05:54;18.50;;;16.55;;
17763;SDS011;22245;52.832;13.816;2022-08-19T07:09:17;20.35;;;17.08;;
17763;SDS011;22245;52.832;13.816;2022-08-19T07:12:40;18.52;;;16.55;;
17763;SDS011;22245;52.832;13.816;2022-08-19T07:16:03;17.75;;;15.75;;
17763;SDS011;22245;52.832;13.816;2022-08-19T07:19:26;19.92;;;16.55;;
17763;SDS011;22245;52.832;13.816;2022-08-19T07:22:51;17.05;;;15.30;;
17763;SDS011;22245;52.832;13.816;2022-08-19T07:26:14;23.27;;;16.33;;
17763;SDS011;22245;52.832;13.816;2022-08-19T07:29:47;20.13;;;15.68;;
17763;SDS011;22245;52.832;13.816;2022-08-19T07:33:17;21.73;;;15.80;;
17763;SDS011;22245;52.832;13.816;2022-08-19T07:36:39;19.95;;;16.00;;
17763;SDS011;22245;52.832;13.816;2022-08-19T07:40:03;17.70;;;15.82;;
17763;SDS011;22245;52.832;13.816;2022-08-19T07:43:26;18.02;;;15.18;;
17763;SDS011;22245;52.832;13.816;2022-08-19T07:46:55;20.70;;;15.63;;
17763;SDS011;22245;52.832;13.816;2022-08-19T07:50:20;18.45;;;16.55;;
17763;SDS011;22245;52.832;13.816;2022-08-19T07:53:43;19.20;;;15.77;;
17763;SDS011;22245;52.832;13.816;2022-08-19T07:57:07;19.00;;;16.08;;
17763;SDS011;22245;52.832;13.816;2022-08-19T08:00:29;18.80;;;15.98;;
17763;SDS011;22245;52.832;13.816;2022-08-19T08:03:51;19.70;;;16.42;;
17763;SDS011;22245;52.832;13.816;2022-08-19T08:07:31;22.58;;;16.33;;
17763;SDS011;22245;52.832;13.816;2022-08-19T08:11:10;20.35;;;16.42;;
17763;SDS011;22245;52.832;13.816;2022-08-19T08:14:37;18.52;;;16.60;;
17763;SDS011;22245;52.832;13.816;2022-08-19T08:18:03;17.95;;;16.05;;
17763;SDS011;22245;52.832;13.816;2022-08-19T08:21:26;17.08;;;15.05;;
17763;SDS011;22245;52.832;13.816;2022-08-19T08:24:48;17.25;;;15.20;;
17763;SDS011;22245;52.832;13.816;2022-08-19T08:28:10;17.30;;;15.10;;
17763;SDS011;22245;52.832;13.816;2022-08-19T08:31:38;17.80;;;14.88;;
17763;SDS011;22245;52.832;13.816;2022-08-19T08:35:01;16.33;;;14.07;;
17763;SDS011;22245;52.832;13.816;2022-08-19T08:38:23;15.98;;;14.20;;
17763;SDS011;22245;52.832;13.816;2022-08-19T08:41:50;17.95;;;14.13;;
17763;SDS011;22245;52.832;13.816;2022-08-19T08:45:15;18.77;;;14.55;;
17763;SDS011;22245;52.832;13.816;2022-08-19T08:48:41;16.98;;;14.60;;
17763;SDS011;22245;52.832;13.816;2022-08-19T08:52:13;15.40;;;13.80;;
17763;SDS011;22245;52.832;13.816;2022-08-19T08:55:40;16.38;;;13.95;;
17763;SDS011;22245;52.832;13.816;2022-08-19T08:59:04;15.55;;;13.77;;
17763;SDS011;22245;52.832;13.816;2022-08-19T09:02:30;16.60;;;13.50;;
17763;SDS011;22245;52.832;13.816;2022-08-19T09:05:57;15.07;;;13.48;;
17763;SDS011;22245;52.832;13.816;2022-08-19T09:09:25;14.00;;;12.68;;
17763;SDS011;22245;52.832;13.816;2022-08-19T09:12:54;14.68;;;12.95;;
17763;SDS011;22245;52.832;13.816;2022-08-19T09:16:28;17.13;;;12.63;;
17763;SDS011;22245;52.832;13.816;2022-08-19T09:19:55;15.55;;;13.38;;
17763;SDS011;22245;52.832;13.816;2022-08-19T09:23:22;15.23;;;13.30;;
17763;SDS011;22245;52.832;13.816;2022-08-19T09:26:46;13.80;;;12.40;;
17763;SDS011;22245;52.832;13.816;2022-08-19T09:30:14;12.98;;;11.65;;
17763;SDS011;22245;52.832;13.816;2022-08-19T09:33:38;14.52;;;12.40;;
17763;SDS011;22245;52.832;13.816;2022-08-19T09:37:00;14.40;;;12.73;;
17763;SDS011;22245;52.832;13.816;2022-08-19T09:40:24;14.55;;;13.10;;
17763;SDS011;22245;52.832;13.816;2022-08-19T09:43:50;14.48;;;12.98;;
17763;SDS011;22245;52.832;13.816;2022-08-19T09:47:13;14.48;;;12.32;;
17763;SDS011;22245;52.832;13.816;2022-08-19T09:50:39;13.23;;;11.82;;
17763;SDS011;22245;52.832;13.816;2022-08-19T09:54:11;16.10;;;12.90;;
17763;SDS011;22245;52.832;13.816;2022-08-19T09:57:34;15.25;;;13.23;;
17763;SDS011;22245;52.832;13.816;2022-08-19T10:00:56;16.25;;;12.55;;
17763;SDS011;22245;52.832;13.816;2022-08-19T10:04:19;16.27;;;13.13;;
17763;SDS011;22245;52.832;13.816;2022-08-19T10:07:44;14.65;;;12.88;;
17763;SDS011;22245;52.832;13.816;2022-08-19T10:11:07;14.93;;;12.95;;
17763;SDS011;22245;52.832;13.816;2022-08-19T10:14:51;14.77;;;13.15;;
17763;SDS011;22245;52.832;13.816;2022-08-19T10:18:14;14.52;;;13.05;;
17763;SDS011;22245;52.832;13.816;2022-08-19T10:21:38;14.60;;;12.98;;
17763;SDS011;22245;52.832;13.816;2022-08-19T10:25:00;13.93;;;12.57;;
17763;SDS011;22245;52.832;13.816;2022-08-19T10:28:22;14.20;;;12.80;;
17763;SDS011;22245;52.832;13.816;2022-08-19T10:31:45;14.77;;;13.18;;
17763;SDS011;22245;52.832;13.816;2022-08-19T10:35:22;14.43;;;12.93;;
17763;SDS011;22245;52.832;13.816;2022-08-19T10:38:48;14.25;;;12.75;;
17763;SDS011;22245;52.832;13.816;2022-08-19T10:42:16;14.63;;;13.00;;
17763;SDS011;22245;52.832;13.816;2022-08-19T10:45:38;17.70;;;13.23;;
17763;SDS011;22245;52.832;13.816;2022-08-19T10:49:13;16.15;;;13.45;;
17763;SDS011;22245;52.832;13.816;2022-08-19T10:52:36;14.10;;;12.63;;
17763;SDS011;22245;52.832;13.816;2022-08-19T10:55:57;14.40;;;12.98;;
17763;SDS011;22245;52.832;13.816;2022-08-19T10:59:36;14.85;;;12.82;;
17763;SDS011;22245;52.832;13.816;2022-08-19T11:02:59;14.25;;;12.75;;
17763;SDS011;22245;52.832;13.816;2022-08-19T11:06:23;14.32;;;12.82;;
17763;SDS011;22245;52.832;13.816;2022-08-19T11:09:45;14.18;;;12.38;;
17763;SDS011;22245;52.832;13.816;2022-08-19T11:13:07;13.75;;;12.20;;
17763;SDS011;22245;52.832;13.816;2022-08-19T11:16:29;14.43;;;12.15;;
17763;SDS011;22245;52.832;13.816;2022-08-19T11:19:51;15.68;;;13.07;;
17763;SDS011;22245;52.832;13.816;2022-08-19T11:23:15;15.60;;;12.88;;
17763;SDS011;22245;52.832;13.816;2022-08-19T11:26:38;13.82;;;12.43;;
17763;SDS011;22245;52.832;13.816;2022-08-19T11:30:01;15.13;;;13.50;;
17763;SDS011;22245;52.832;13.816;2022-08-19T11:33:26;14.32;;;12.93;;
17763;SDS011;22245;52.832;13.816;2022-08-19T11:36:49;15.82;;;12.23;;
17763;SDS011;22245;52.832;13.816;2022-08-19T11:40:13;14.82;;;12.27;;
17763;SDS011;22245;52.832;13.816;2022-08-19T11:43:35;13.60;;;11.77;;
17763;SDS011;22245;52.832;13.816;2022-08-19T11:47:00;13.68;;;12.05;;
17763;SDS011;22245;52.832;13.816;2022-08-19T11:50:28;14.45;;;12.75;;
17763;SDS011;22245;52.832;13.816;2022-08-19T11:53:50;13.27;;;11.80;;
17763;SDS011;22245;52.832;13.816;2022-08-19T11:57:14;13.07;;;11.80;;
17763;SDS011;22245;52.832;13.816;2022-08-19T12:00:37;14.45;;;12.85;;
17763;SDS011;22245;52.832;13.816;2022-08-19T12:04:02;13.88;;;12.45;;
17763;SDS011;22245;52.832;13.816;2022-08-19T12:07:25;15.98;;;12.57;;
17763;SDS011;22245;52.832;13.816;2022-08-19T12:10:47;16.70;;;13.02;;
17763;SDS011;22245;52.832;13.816;2022-08-19T12:14:11;14.43;;;12.88;;
17763;SDS011;22245;52.832;13.816;2022-08-19T12:17:36;15.70;;;12.30;;
17763;SDS011;22245;52.832;13.816;2022-08-19T12:20:57;14.15;;;12.57;;
17763;SDS011;22245;52.832;13.816;2022-08-19T12:24:20;14.02;;;12.63;;
17763;SDS011;22245;52.832;13.816;2022-08-19T12:27:43;15.52;;;13.85;;
17763;SDS011;22245;52.832;13.816;2022-08-19T12:31:18;16.50;;;13.40;;
17763;SDS011;22245;52.832;13.816;2022-08-19T12:34:40;15.07;;;12.50;;
17763;SDS011;22245;52.832;13.816;2022-08-19T12:38:02;14.90;;;12.68;;
17763;SDS011;22245;52.832;13.816;2022-08-19T12:41:25;14.48;;;12.73;;
17763;SDS011;22245;52.832;13.816;2022-08-19T12:44:47;14.13;;;12.73;;
17763;SDS011;22245;52.832;13.816;2022-08-19T12:48:11;15.52;;;13.38;;
17763;SDS011;22245;52.832;13.816;2022-08-19T12:51:53;16.30;;;13.43;;
17763;SDS011;22245;52.832;13.816;2022-08-19T12:55:15;15.05;;;13.48;;
17763;SDS011;22245;52.832;13.816;2022-08-19T12:58:38;14.68;;;13.20;;
17763;SDS011;22245;52.832;13.816;2022-08-19T13:02:11;16.90;;;13.68;;
17763;SDS011;22245;52.832;13.816;2022-08-19T13:05:35;15.45;;;13.55;;
17763;SDS011;22245;52.832;13.816;2022-08-19T13:08:57;15.45;;;13.00;;
17763;SDS011;22245;52.832;13.816;2022-08-19T13:12:19;14.23;;;12.82;;
17763;SDS011;22245;52.832;13.816;2022-08-19T13:15:44;13.38;;;11.98;;
17763;SDS011;22245;52.832;13.816;2022-08-19T13:19:05;13.18;;;11.77;;
17763;SDS011;22245;52.832;13.816;2022-08-19T13:22:29;14.40;;;11.88;;
17763;SDS011;22245;52.832;13.816;2022-08-19T13:25:58;15.95;;;12.02;;
17763;SDS011;22245;52.832;13.816;2022-08-19T13:29:22;16.25;;;12.75;;
17763;SDS011;22245;52.832;13.816;2022-08-19T13:33:02;15.25;;;12.70;;
17763;SDS011;22245;52.832;13.816;2022-08-19T13:36:35;15.05;;;13.45;;
17763;SDS011;22245;52.832;13.816;2022-08-19T13:40:00;14.63;;;12.98;;
17763;SDS011;22245;52.832;13.816;2022-08-19T13:43:24;15.80;;;13.35;;
17763;SDS011;22245;52.832;13.816;2022-08-19T13:46:48;14.63;;;13.15;;
17763;SDS011;22245;52.832;13.816;2022-08-19T13:50:14;14.52;;;13.02;;
17763;SDS011;22245;52.832;13.816;2022-08-19T13:53:38;14.13;;;12.65;;
17763;SDS011;22245;52.832;13.816;2022-08-19T13:57:08;14.65;;;12.70;;
17763;SDS011;22245;52.832;13.816;2022-08-19T14:00:32;14.02;;;12.63;;
17763;SDS011;22245;52.832;13.816;2022-08-19T14:03:55;14.52;;;13.02;;
17763;SDS011;22245;52.832;13.816;2022-08-19T14:07:17;15.07;;;13.20;;
17763;SDS011;22245;52.832;13.816;2022-08-19T14:10:39;15.52;;;12.93;;
17763;SDS011;22245;52.832;13.816;2022-08-19T14:14:02;13.20;;;11.90;;
17763;SDS011;22245;52.832;13.816;2022-08-19T14:17:24;14.82;;;13.20;;
17763;SDS011;22245;52.832;13.816;2022-08-19T14:20:46;17.58;;;13.15;;
17763;SDS011;22245;52.832;13.816;2022-08-19T14:24:08;14.63;;;13.07;;
17763;SDS011;22245;52.832;13.816;2022-08-19T14:27:30;15.13;;;13.63;;
17763;SDS011;22245;52.832;13.816;2022-08-19T14:30:55;15.85;;;13.70;;
17763;SDS011;22245;52.832;13.816;2022-08-19T14:34:17;15.88;;;14.25;;
17763;SDS011;22245;52.832;13.816;2022-08-19T14:37:39;15.07;;;13.57;;
17763;SDS011;22245;52.832;13.816;2022-08-19T14:41:16;15.15;;;13.55;;
17763;SDS011;22245;52.832;13.816;2022-08-19T14:44:40;14.38;;;12.88;;
17763;SDS011;22245;52.832;13.816;2022-08-19T14:48:04;14.25;;;12.80;;
17763;SDS011;22245;52.832;13.816;2022-08-19T14:51:38;13.75;;;12.40;;
17763;SDS011;22245;52.832;13.816;2022-08-19T14:55:00;15.15;;;13.57;;
17763;SDS011;22245;52.832;13.816;2022-08-19T14:58:26;14.48;;;13.07;;
17763;SDS011;22245;52.832;13.816;2022-08-19T15:01:49;14.30;;;12.93;;
17763;SDS011;22245;52.832;13.816;2022-08-19T15:05:12;14.50;;;13.07;;
17763;SDS011;22245;52.832;13.816;2022-08-19T15:08:35;14.52;;;13.02;;
17763;SDS011;22245;52.832;13.816;2022-08-19T15:11:59;14.43;;;12.98;;
17763;SDS011;22245;52.832;13.816;2022-08-19T15:15:22;15.68;;;12.88;;
17763;SDS011;22245;52.832;13.816;2022-08-19T15:18:44;15.60;;;13.90;;
17763;SDS011;22245;52.832;13.816;2022-08-19T15:22:11;14.38;;;13.02;;
17763;SDS011;22245;52.832;13.816;2022-08-19T15:25:33;14.70;;;13.27;;
17763;SDS011;22245;52.832;13.816;2022-08-19T15:28:55;15.18;;;13.68;;
17763;SDS011;22245;52.832;13.816;2022-08-19T15:32:18;15.23;;;13.63;;
17763;SDS011;22245;52.832;13.816;2022-08-19T15:35:40;15.65;;;12.95;;
17763;SDS011;22245;52.832;13.816;2022-08-19T15:39:04;14.55;;;13.10;;
17763;SDS011;22245;52.832;13.816;2022-08-19T15:42:29;15.38;;;13.40;;
17763;SDS011;22245;52.832;13.816;2022-08-19T15:45:51;14.48;;;12.98;;
17763;SDS011;22245;52.832;13.816;2022-08-19T15:49:13;15.20;;;13.48;;
17763;SDS011;22245;52.832;13.816;2022-08-19T15:52:43;14.63;;;12.88;;
17763;SDS011;22245;52.832;13.816;2022-08-19T15:56:10;14.32;;;12.95;;
17763;SDS011;22245;52.832;13.816;2022-08-19T15:59:32;14.23;;;12.73;;
17763;SDS011;22245;52.832;13.816;2022-08-19T16:03:13;13.38;;;12.07;;
17763;SDS011;22245;52.832;13.816;2022-08-19T16:06:59;17.73;;;12.70;;
17763;SDS011;22245;52.832;13.816;2022-08-19T16:10:22;13.02;;;11.82;;
17763;SDS011;22245;52.832;13.816;2022-08-19T16:13:48;14.55;;;12.02;;
17763;SDS011;22245;52.832;13.816;2022-08-19T16:17:11;13.43;;;12.13;;
17763;SDS011;22245;52.832;13.816;2022-08-19T16:20:33;15.25;;;11.63;;
17763;SDS011;22245;52.832;13.816;2022-08-19T16:23:55;13.57;;;12.18;;
17763;SDS011;22245;52.832;13.816;2022-08-19T16:27:19;14.02;;;11.98;;
17763;SDS011;22245;52.832;13.816;2022-08-19T16:30:42;14.85;;;12.43;;
17763;SDS011;22245;52.832;13.816;2022-08-19T16:34:10;13.30;;;12.00;;
17763;SDS011;22245;52.832;13.816;2022-08-19T16:37:33;14.15;;;12.57;;
17763;SDS011;22245;52.832;13.816;2022-08-19T16:40:55;15.13;;;12.55;;
17763;SDS011;22245;52.832;13.816;2022-08-19T16:44:19;16.08;;;12.60;;
17763;SDS011;22245;52.832;13.816;2022-08-19T16:47:42;14.85;;;13.30;;
17763;SDS011;22245;52.832;13.816;2022-08-19T16:51:04;15.07;;;13.48;;
17763;SDS011;22245;52.832;13.816;2022-08-19T16:54:28;16.10;;;14.20;;
17763;SDS011;22245;52.832;13.816;2022-08-19T16:57:51;15.02;;;13.52;;
17763;SDS011;22245;52.832;13.816;2022-08-19T17:01:13;18.73;;;14.45;;
17763;SDS011;22245;52.832;13.816;2022-08-19T17:04:36;15.70;;;13.57;;
17763;SDS011;22245;52.832;13.816;2022-08-19T17:07:58;17.30;;;13.73;;
17763;SDS011;22245;52.832;13.816;2022-08-19T17:11:20;14.93;;;13.07;;
17763;SDS011;22245;52.832;13.816;2022-08-19T17:14:45;16.48;;;13.30;;
17763;SDS011;22245;52.832;13.816;2022-08-19T17:18:07;14.73;;;13.30;;
17763;SDS011;22245;52.832;13.816;2022-08-19T17:21:32;14.43;;;12.93;;
17763;SDS011;22245;52.832;13.816;2022-08-19T17:24:55;14.80;;;13.30;;
17763;SDS011;22245;52.832;13.816;2022-08-19T17:28:18;15.60;;;13.70;;
17763;SDS011;22245;52.832;13.816;2022-08-19T17:31:41;16.33;;;12.95;;
17763;SDS011;22245;52.832;13.816;2022-08-19T17:35:03;17.45;;;13.75;;
17763;SDS011;22245;52.832;13.816;2022-08-19T17:38:27;15.30;;;13.70;;
17763;SDS011;22245;52.832;13.816;2022-08-19T17:41:49;14.82;;;13.32;;
17763;SDS011;22245;52.832;13.816;2022-08-19T17:45:12;14.65;;;13.15;;
17763;SDS011;22245;52.832;13.816;2022-08-19T17:48:35;15.02;;;13.43;;
17763;SDS011;22245;52.832;13.816;2022-08-19T17:51:58;15.10;;;13.52;;
17763;SDS011;22245;52.832;13.816;2022-08-19T17:55:21;15.38;;;13.77;;
17763;SDS011;22245;52.832;13.816;2022-08-19T17:58:43;16.35;;;14.60;;
17763;SDS011;22245;52.832;13.816;2022-08-19T18:02:19;15.60;;;13.77;;
17763;SDS011;22245;52.832;13.816;2022-08-19T18:05:41;16.33;;;14.60;;
17763;SDS011;22245;52.832;13.816;2022-08-19T18:09:03;20.05;;;14.45;;
17763;SDS011;22245;52.832;13.816;2022-08-19T18:12:27;15.70;;;14.00;;
17763;SDS011;22245;52.832;13.816;2022-08-19T18:15:49;15.55;;;13.77;;
17763;SDS011;22245;52.832;13.816;2022-08-19T18:19:11;15.23;;;13.73;;
17763;SDS011;22245;52.832;13.816;2022-08-19T18:22:34;15.85;;;14.07;;
17763;SDS011;22245;52.832;13.816;2022-08-19T18:25:58;16.88;;;13.88;;
17763;SDS011;22245;52.832;13.816;2022-08-19T18:29:22;15.13;;;12.93;;
17763;SDS011;22245;52.832;13.816;2022-08-19T18:32:44;16.58;;;13.45;;
17763;SDS011;22245;52.832;13.816;2022-08-19T18:36:08;14.88;;;13.35;;
17763;SDS011;22245;52.832;13.816;2022-08-19T18:39:30;15.18;;;13.38;;
17763;SDS011;22245;52.832;13.816;2022-08-19T18:43:09;14.93;;;13.13;;
17763;SDS011;22245;52.832;13.816;2022-08-19T18:46:50;14.55;;;13.05;;
17763;SDS011;22245;52.832;13.816;2022-08-19T18:50:43;14.95;;;13.40;;
17763;SDS011;22245;52.832;13.816;2022-08-19T18:54:08;14.45;;;12.82;;
17763;SDS011;22245;52.832;13.816;2022-08-19T18:57:30;14.38;;;12.93;;
17763;SDS011;22245;52.832;13.816;2022-08-19T19:00:52;15.20;;;13.60;;
17763;SDS011;22245;52.832;13.816;2022-08-19T19:04:18;15.02;;;13.35;;
17763;SDS011;22245;52.832;13.816;2022-08-19T19:07:43;14.68;;;13.05;;
17763;SDS011;22245;52.832;13.816;2022-08-19T19:11:06;16.50;;;13.63;;
17763;SDS011;22245;52.832;13.816;2022-08-19T19:14:32;15.15;;;13.55;;
17763;SDS011;22245;52.832;13.816;2022-08-19T19:18:08;14.38;;;12.88;;
17763;SDS011;22245;52.832;13.816;2022-08-19T19:21:33;14.70;;;13.20;;
17763;SDS011;22245;52.832;13.816;2022-08-19T19:24:55;15.65;;;13.30;;
17763;SDS011;22245;52.832;13.816;2022-08-19T19:28:19;15.68;;;13.77;;
17763;SDS011;22245;52.832;13.816;2022-08-19T19:31:44;15.50;;;13.40;;
17763;SDS011;22245;52.832;13.816;2022-08-19T19:35:07;15.88;;;13.95;;
17763;SDS011;22245;52.832;13.816;2022-08-19T19:38:31;15.43;;;13.52;;